Terminal Aerodrome Forecast
Issued by NWS Sterling, VA

Home | Current Version | Previous Version | Text Only | Print | Product List | Glossary On
Versions: 1 2 3 4 5 6 7 8 9 10 11 12 13 14 15 16 17 18 19 20
000
FTUS41 KLWX 260500 RRA
TAFMRB
TAF
KMRB 260542Z 2606/2706 01006KT 3SM -RASN BR OVC005
     FM260700 06007KT 2SM -SN OVC008
     FM261400 06007KT 1/2SM SN OVC008
     FM262300 02007KT 1SM -SN OVC010
     FM270500 34007KT P6SM OVC010=

USA.gov is the U.S. government's official web portal to all federal, state and local government web resources and services.